Time;durP1;ratioP1;P1;durP2;ratioP2;P2;SDS_P1;SDS_P2;PMS_P1;PMS_P2;Temp;Humidity;BMP_temperature;BMP_pressure;BME280_temperature;BME280_humidity;BME280_pressure;Samples;Min_cycle;Max_cycle;Signal;HPM_P1;HPM_P2
2021/06/06 00:00:28;;;;;;;0.70;0.70;;;;;;;19.77;59.16;98425.08;129003;1095;114772;-84
2021/06/06 00:07:21;;;;;;;0.50;0.50;;;;;;;19.66;59.51;98422.19;129018;1097;115136;-83
2021/06/06 00:10:48;;;;;;;0.60;0.60;;;;;;;19.55;59.31;98423.94;128962;1096;115379;-83
2021/06/06 00:14:14;;;;;;;0.55;0.55;;;;;;;19.45;58.92;98430.80;128973;1096;116010;-82
2021/06/06 00:21:09;;;;;;;0.50;0.50;;;;;;;19.23;59.32;98421.50;129633;1096;22638;-83
2021/06/06 00:24:36;;;;;;;0.50;0.50;;;;;;;19.17;59.12;98428.41;128970;1095;115405;-83
2021/06/06 00:28:03;;;;;;;0.53;0.53;;;;;;;19.08;58.60;98419.69;129007;1095;115281;-82
2021/06/06 00:31:30;;;;;;;0.48;0.48;;;;;;;19.02;58.11;98432.86;128999;1096;114813;-81
2021/06/06 00:35:05;;;;;;;0.60;0.60;;;;;;;18.96;58.02;98428.84;129001;1095;115020;-81
2021/06/06 00:38:31;;;;;;;;;;;;;;;;;;;;;
2021/06/06 00:42:00;;;;;;;0.50;0.50;;;;;;;18.88;57.47;98411.55;129832;1096;22628;-82
2021/06/06 00:45:26;;;;;;;0.70;0.70;;;;;;;18.86;57.29;98407.60;128961;1094;114827;-82
2021/06/06 00:48:54;;;;;;;0.50;0.50;;;;;;;18.81;57.11;98399.72;128821;1096;115213;-82
2021/06/06 00:52:24;;;;;;;0.40;0.40;;;;;;;18.78;57.01;98398.50;128728;1096;115166;-82
2021/06/06 00:55:51;;;;;;;0.50;0.50;;;;;;;18.74;56.92;98392.20;128762;1095;114863;-81
2021/06/06 00:59:24;;;;;;;0.50;0.50;;;;;;;18.73;56.81;98396.08;128718;1096;115022;-83
2021/06/06 01:02:42;;;;;;;;;;;;;;;;;;;;;
2021/06/06 01:06:16;;;;;;;0.58;0.58;;;;;;;18.65;56.84;98400.59;128978;1096;115170;-83
2021/06/06 01:09:43;;;;;;;0.43;0.43;;;;;;;18.61;56.83;98388.04;129019;1096;115654;-83
2021/06/06 01:13:19;;;;;;;0.60;0.60;;;;;;;18.58;57.17;98386.81;129019;1095;114944;-82
2021/06/06 01:16:46;;;;;;;0.45;0.40;;;;;;;18.57;56.96;98398.09;129039;1096;115237;-82
2021/06/06 01:20:32;;;;;;;0.40;0.40;;;;;;;18.55;57.61;98393.02;128990;1096;115536;-83
2021/06/06 01:30:46;;;;;;;0.50;0.50;;;;;;;18.53;57.61;98402.70;128995;1096;115172;-79
2021/06/06 01:34:13;;;;;;;0.50;0.50;;;;;;;18.54;57.62;98413.23;129118;1096;115119;-83
2021/06/06 02:02:21;;;;;;;0.63;0.63;;;;;;;18.85;58.24;98409.55;129039;1096;115463;-81
2021/06/06 02:05:51;;;;;;;0.70;0.70;;;;;;;18.83;58.10;98406.41;129340;1096;114224;-81
2021/06/06 02:09:16;;;;;;;;;;;;;;;;;;;;;
2021/06/06 02:19:33;;;;;;;0.60;0.60;;;;;;;18.60;58.26;98405.56;128748;1096;115505;-84
2021/06/06 02:26:30;;;;;;;0.50;0.50;;;;;;;18.45;58.57;98411.89;128998;1096;115203;-83
2021/06/06 02:30:18;;;;;;;0.60;0.60;;;;;;;18.40;59.01;98415.70;129853;1096;22570;-82
2021/06/06 02:33:44;;;;;;;0.55;0.55;;;;;;;18.35;58.98;98405.88;128760;1096;114857;-82
2021/06/06 02:37:17;;;;;;;0.50;0.50;;;;;;;18.31;58.94;98409.66;129001;1096;115197;-82
2021/06/06 02:40:46;;;;;;;0.60;0.60;;;;;;;18.28;58.84;98402.23;128792;1096;115040;-82
2021/06/06 02:51:08;;;;;;;;;;;;;;;18.19;58.91;98418.77;128747;1095;115258;-83
2021/06/06 02:54:44;;;;;;;0.70;0.70;;;;;;;18.20;59.93;98428.55;129165;1095;101376;-83
2021/06/06 02:58:10;;;;;;;0.60;0.60;;;;;;;18.26;60.38;98420.86;128950;1095;115090;-82
2021/06/06 03:01:37;;;;;;;0.50;0.50;;;;;;;18.33;60.19;98410.11;128728;1097;115834;-83
2021/06/06 03:08:36;;;;;;;0.50;0.50;;;;;;;18.38;59.99;98421.50;128810;1097;114566;-82
2021/06/06 03:12:03;;;;;;;0.55;0.55;;;;;;;18.39;59.60;98425.83;129918;1096;22581;-81
2021/06/06 03:15:29;;;;;;;0.70;0.70;;;;;;;18.38;59.31;98420.72;129038;1096;114835;-81
2021/06/06 03:22:30;;;;;;;0.53;0.53;;;;;;;18.36;59.59;98439.38;129040;1097;115242;-82
2021/06/06 03:32:54;;;;;;;0.50;0.50;;;;;;;18.33;59.64;98434.64;129689;1097;22549;-82
2021/06/06 03:36:21;;;;;;;0.60;0.60;;;;;;;18.31;59.44;98426.83;129069;1097;115878;-82
2021/06/06 03:39:48;;;;;;;0.70;0.70;;;;;;;18.32;59.70;98424.89;129009;1097;115158;-82
2021/06/06 03:43:15;;;;;;;0.53;0.53;;;;;;;18.31;59.92;98435.01;128818;1097;115760;-81
2021/06/06 03:46:48;;;;;;;0.30;0.30;;;;;;;18.31;59.75;98437.73;129064;1097;115343;-82
2021/06/06 03:50:18;;;;;;;0.60;0.60;;;;;;;18.34;59.74;98441.66;128771;1097;115302;-82
2021/06/06 03:53:50;;;;;;;0.60;0.60;;;;;;;18.32;59.05;98433.86;129496;1096;22557;-81
2021/06/06 03:57:18;;;;;;;0.50;0.50;;;;;;;18.31;59.44;98450.55;128710;1096;114880;-82
2021/06/06 04:00:45;;;;;;;0.90;0.50;;;;;;;18.35;59.67;98437.78;129055;1095;114967;-82
2021/06/06 04:07:30;;;;;;;0.60;0.60;;;;;;;18.54;60.38;98445.95;129035;1095;115318;-83
2021/06/06 04:10:54;;;;;;;;;;;;;;;;;;;;;
2021/06/06 04:14:30;;;;;;;0.50;0.50;;;;;;;18.71;59.62;98458.41;128937;1096;115360;-82
2021/06/06 04:17:59;;;;;;;0.50;0.50;;;;;;;18.79;59.05;98468.30;129589;1097;22590;-81
2021/06/06 04:28:30;;;;;;;0.60;0.60;;;;;;;19.08;58.23;98460.63;128637;1097;115341;-82
2021/06/06 04:35:25;;;;;;;;;;;;;;;;;;;;;
2021/06/06 04:38:55;;;;;;;0.70;0.70;;;;;;;19.31;57.60;98463.36;129700;1096;22547;-82
2021/06/06 04:42:22;;;;;;;0.70;0.70;;;;;;;19.38;57.44;98458.80;129043;1096;114911;-82
2021/06/06 04:45:49;;;;;;;0.60;0.60;;;;;;;19.37;57.52;98464.61;128985;1095;115480;-83
2021/06/06 04:49:20;;;;;;;0.68;0.68;;;;;;;19.42;57.13;98455.34;128995;1096;115460;-81
2021/06/06 04:52:45;;;;;;;;;;;;;;;;;;;;;
2021/06/06 04:59:40;;;;;;;0.70;0.70;;;;;;;19.42;57.22;98466.27;129017;1096;114847;-82
2021/06/06 05:13:34;;;;;;;0.60;0.60;;;;;;;19.27;57.52;98490.59;128844;1095;114078;-83
2021/06/06 05:17:03;;;;;;;0.80;0.80;;;;;;;19.30;57.42;98481.69;129059;1095;115304;-83
2021/06/06 05:20:29;;;;;;;0.50;0.50;;;;;;;19.34;57.55;98501.64;129076;1096;115190;-83
2021/06/06 05:23:58;;;;;;;0.65;0.65;;;;;;;19.34;57.08;98496.18;129611;1097;22628;-81
2021/06/06 05:27:08;;;;;;;0.63;0.63;;;;;;;19.34;57.06;98489.94;128937;1097;114903;-82
2021/06/06 05:30:32;;;;;;;;;;;;;;;;;;;;;
2021/06/06 05:54:27;;;;;;;;;;;;;;;;;;;;;
2021/06/06 06:54:21;;;;;;;0.60;0.60;;;;;;;21.59;52.60;98514.73;129105;1096;114796;-81
2021/06/06 06:57:49;;;;;;;0.60;0.60;;;;;;;21.69;51.76;98524.19;129140;1096;115537;-81
2021/06/06 07:01:15;;;;;;;0.70;0.70;;;;;;;21.80;51.48;98522.31;129190;1095;114895;-81
2021/06/06 07:04:42;;;;;;;0.50;0.50;;;;;;;21.93;51.10;98522.80;129171;1096;114123;-81
2021/06/06 07:08:01;;;;;;;;;;;;;;;;;;;;;
2021/06/06 07:11:41;;;;;;;0.50;0.50;;;;;;;22.15;50.76;98510.84;129964;1096;22632;-82
2021/06/06 07:15:07;;;;;;;0.68;0.68;;;;;;;22.31;50.85;98526.98;129989;1096;22574;-82
2021/06/06 07:18:33;;;;;;;;;;;;;;;;;;;;;
2021/06/06 07:28:59;;;;;;;;;;;;;;;;;;;;;
2021/06/06 07:32:28;;;;;;;0.60;0.60;;;;;;;22.89;49.56;98503.32;129084;1096;114902;-82
2021/06/06 07:36:00;;;;;;;0.58;0.58;;;;;;;23.00;49.42;98499.45;129878;1097;22590;-82
2021/06/06 07:39:27;;;;;;;0.70;0.70;;;;;;;23.13;49.68;98507.33;128771;1095;115362;-82
2021/06/06 07:42:38;;;;;;;;;;;;;;;;;;;;;
2021/06/06 07:49:47;;;;;;;0.60;0.60;;;;;;;23.47;48.62;98499.53;129076;1096;115058;-81
2021/06/06 07:56:44;;;;;;;;;;;;;;;;;;;;;
2021/06/06 08:00:26;;;;;;;0.50;0.50;;;;;;;23.69;48.04;98509.35;128965;1097;115388;-83
2021/06/06 08:03:52;;;;;;;0.70;0.70;;;;;;;23.77;47.91;98521.13;129098;1095;115374;-83
2021/06/06 08:14:05;;;;;;;;;;;;;;;;;;;;;
2021/06/06 08:17:40;;;;;;;0.70;0.70;;;;;;;24.15;46.73;98529.74;129118;1096;114706;-82
2021/06/06 08:21:08;;;;;;;0.70;0.70;;;;;;;24.23;46.82;98528.55;129627;1096;22630;-82
2021/06/06 08:24:37;;;;;;;0.65;0.65;;;;;;;24.33;47.17;98526.97;129132;1096;115393;-82
2021/06/06 08:28:04;;;;;;;0.58;0.58;;;;;;;24.48;47.11;98531.25;129004;1097;115708;-80
2021/06/06 08:31:32;;;;;;;0.68;0.68;;;;;;;24.61;46.96;98535.16;129063;1095;115231;-82
2021/06/06 08:38:27;;;;;;;0.70;0.70;;;;;;;24.73;45.45;98520.94;129018;1097;115091;-82
2021/06/06 08:41:54;;;;;;;0.88;0.88;;;;;;;24.77;45.51;98520.14;129628;1096;22580;-82
2021/06/06 08:48:57;;;;;;;1.00;1.00;;;;;;;25.05;45.48;98524.72;128782;1095;115192;-81
2021/06/06 08:52:35;;;;;;;1.20;1.20;;;;;;;25.20;45.26;98520.73;129003;1096;115048;-83
2021/06/06 08:55:54;;;;;;;2.73;2.63;;;;;;;25.38;44.89;98529.64;128879;1096;115284;-82
2021/06/06 08:59:37;;;;;;;1.88;1.88;;;;;;;25.55;44.34;98525.20;129082;1096;114822;-83
2021/06/06 09:06:40;;;;;;;0.70;0.70;;;;;;;25.55;43.78;98527.96;129052;1095;115114;-83
2021/06/06 09:17:48;;;;;;;;;;;;;;;;;;;;;
2021/06/06 09:24:06;;;;;;;0.73;0.73;;;;;;;25.97;40.96;98517.77;129412;1095;114573;-81
2021/06/06 09:27:35;;;;;;;1.00;1.00;;;;;;;26.21;41.94;98521.46;127804;1100;115129;-81
2021/06/06 09:34:32;;;;;;;1.20;1.20;;;;;;;26.32;42.29;98522.13;128803;1097;115544;-83
2021/06/06 09:38:02;;;;;;;1.30;1.30;;;;;;;26.52;42.28;98529.84;129105;1096;115119;-80
2021/06/06 09:41:35;;;;;;;1.30;1.30;;;;;;;26.71;41.74;98531.20;129067;1096;114880;-83
2021/06/06 09:45:07;;;;;;;4.60;4.40;;;;;;;26.74;41.78;98519.33;129823;1096;22556;-83
2021/06/06 09:52:16;;;;;;;1.20;1.20;;;;;;;27.25;41.50;98509.95;128828;1096;115750;-82
2021/06/06 09:55:45;;;;;;;;;;;;;;;;;;;;;
2021/06/06 10:02:44;;;;;;;1.50;1.50;;;;;;;28.14;38.94;98510.48;128976;1096;114839;-82
2021/06/06 10:06:10;;;;;;;;;;;;;;;;;;;;;
2021/06/06 10:09:48;;;;;;;0.90;0.90;;;;;;;28.65;38.69;98522.19;128699;1096;115185;-82
2021/06/06 10:13:27;;;;;;;0.90;0.90;;;;;;;28.59;37.47;98529.42;128910;1096;115472;-83
2021/06/06 10:16:59;;;;;;;1.93;1.40;;;;;;;28.73;37.43;98529.14;128992;1095;115178;-83
2021/06/06 10:20:38;;;;;;;1.10;1.10;;;;;;;29.05;37.29;98522.16;128956;1096;115105;-80
2021/06/06 10:24:16;;;;;;;1.20;1.20;;;;;;;29.33;36.83;98513.18;129277;1096;22595;-81
2021/06/06 10:27:47;;;;;;;;;;;;;;;;;;;;;
2021/06/06 10:31:35;;;;;;;;;;;;;;;;;;;;;
2021/06/06 10:35:06;;;;;;;0.98;0.98;;;;;;;29.94;34.67;98510.92;128809;1096;115540;-82
2021/06/06 10:38:43;;;;;;;;;;;;;;;;;;;;;
2021/06/06 10:42:07;;;;;;;;;;;;;;;;;;;;;
2021/06/06 10:53:15;;;;;;;0.85;0.85;;;;;;;29.96;34.68;98512.05;128615;1096;115617;-82
2021/06/06 10:56:45;;;;;;;;;;;;;;;;;;;;;
2021/06/06 11:03:47;;;;;;;;;;;;;;;;;;;;;
2021/06/06 11:07:02;;;;;;;0.80;0.80;;;;;;;30.53;33.88;98509.73;128668;1096;115367;-81
2021/06/06 11:10:19;;;;;;;0.95;0.95;;;;;;;30.77;32.91;98502.72;128956;1096;115007;-80
2021/06/06 11:17:05;;;;;;;;;;;;;;;;;;;;;
2021/06/06 11:20:34;;;;;;;0.80;0.80;;;;;;;31.51;32.15;98498.84;129044;1096;114935;-81
2021/06/06 11:23:59;;;;;;;0.70;0.70;;;;;;;31.79;32.38;98501.90;129862;1096;22590;-80
2021/06/06 11:27:29;;;;;;;;;;;;;;;;;;;;;
2021/06/06 11:31:06;;;;;;;0.80;0.80;;;;;;;31.47;31.86;98500.19;128843;1096;115020;-80
2021/06/06 11:34:35;;;;;;;0.80;0.80;;;;;;;31.21;31.98;98489.06;129046;1096;115264;-80
2021/06/06 11:37:53;;;;;;;0.90;0.90;;;;;;;31.01;32.08;98496.86;128979;1096;115158;-80
2021/06/06 11:41:21;;;;;;;0.90;0.90;;;;;;;31.13;32.11;98492.52;128998;1096;116043;-79
2021/06/06 11:44:50;;;;;;;0.75;0.75;;;;;;;31.42;32.05;98486.84;129334;1096;115160;-79
2021/06/06 11:48:22;;;;;;;0.90;0.90;;;;;;;31.78;31.91;98481.63;129885;1096;22565;-80
2021/06/06 11:51:49;;;;;;;1.00;1.00;;;;;;;32.16;31.17;98479.98;129058;1096;115338;-81
2021/06/06 11:55:23;;;;;;;;;;;;;;;;;;;;;
2021/06/06 12:02:42;;;;;;;;;;;;;;;;;;;;;
2021/06/06 12:05:59;;;;;;;0.80;0.80;;;;;;;32.16;30.30;98466.83;129539;1095;22539;-81
2021/06/06 12:09:32;;;;;;;0.78;0.78;;;;;;;31.84;30.72;98467.94;128965;1096;114515;-82
2021/06/06 12:12:56;;;;;;;;;;;;;;;;;;;;;
2021/06/06 12:16:21;;;;;;;;;;;;;;;;;;;;;
2021/06/06 12:19:51;;;;;;;1.10;1.10;;;;;;;31.83;28.71;98451.66;128940;1096;115303;-81
2021/06/06 12:23:18;;;;;;;0.90;0.90;;;;;;;32.15;29.45;98447.79;129051;1096;115394;-80
2021/06/06 12:26:43;;;;;;;0.80;0.80;;;;;;;32.42;28.77;98430.47;129386;1095;114675;-81
2021/06/06 12:30:11;;;;;;;0.90;0.90;;;;;;;32.65;27.80;98432.77;129595;1096;23337;-81
2021/06/06 12:33:41;;;;;;;0.75;0.75;;;;;;;32.68;26.73;98434.65;129051;1096;115477;-80
2021/06/06 12:37:10;;;;;;;0.60;0.60;;;;;;;32.39;28.95;98434.97;128651;1096;115533;-79
2021/06/06 12:40:36;;;;;;;0.80;0.80;;;;;;;32.11;29.10;98435.97;129038;1096;115113;-80
2021/06/06 12:44:04;;;;;;;0.93;0.93;;;;;;;31.84;29.39;98437.30;128797;1096;115412;-80
2021/06/06 12:47:34;;;;;;;0.90;0.90;;;;;;;31.65;29.55;98441.92;129077;1096;115158;-80
2021/06/06 12:51:02;;;;;;;0.85;0.85;;;;;;;31.42;29.51;98437.53;129808;1096;22621;-81
2021/06/06 12:54:32;;;;;;;0.80;0.80;;;;;;;31.25;28.75;98431.30;129046;1096;114693;-80
2021/06/06 13:01:36;;;;;;;;;;;;;;;;;;;;;
2021/06/06 13:05:20;;;;;;;0.93;0.93;;;;;;;31.12;29.09;98438.87;128829;1095;115390;-79
2021/06/06 13:08:38;;;;;;;;;;;;;;;;;;;;;
2021/06/06 13:12:15;;;;;;;;;;;;;;;;;;;;;
2021/06/06 13:15:59;;;;;;;0.90;0.90;;;;;;;33.16;27.49;98431.60;128854;1096;115090;-80
2021/06/06 13:19:25;;;;;;;0.90;0.90;;;;;;;33.76;26.92;98431.13;127884;1097;115329;-78
2021/06/06 13:22:43;;;;;;;0.98;0.98;;;;;;;34.26;25.82;98425.36;128751;1096;115402;-81
2021/06/06 13:26:44;;;;;;;0.78;0.78;;;;;;;34.72;25.55;98426.05;128899;1096;114645;-80
2021/06/06 13:30:13;;;;;;;0.80;0.80;;;;;;;34.86;24.25;98428.17;129200;1096;114625;-81
2021/06/06 13:33:44;;;;;;;0.83;0.83;;;;;;;35.23;20.73;98427.23;128822;1100;115696;-81
2021/06/06 13:37:10;;;;;;;0.73;0.73;;;;;;;34.89;23.25;98426.44;128734;1096;114350;-80
2021/06/06 13:44:06;;;;;;;0.80;0.80;;;;;;;33.91;23.10;98423.66;128932;1096;115075;-81
2021/06/06 13:47:22;;;;;;;0.90;0.90;;;;;;;33.45;24.40;98422.84;129034;1096;114814;-81
2021/06/06 13:50:43;;;;;;;;;;;;;;;;;;;;;
2021/06/06 13:54:21;;;;;;;0.80;0.80;;;;;;;32.84;24.70;98421.70;129047;1096;114483;-80
2021/06/06 13:57:48;;;;;;;0.80;0.80;;;;;;;32.46;25.97;98428.33;129043;1096;115033;-80
2021/06/06 14:01:15;;;;;;;0.80;0.80;;;;;;;32.17;26.65;98431.38;129051;1095;115477;-80
2021/06/06 14:04:30;;;;;;;;;;;;;;;;;;;;;
2021/06/06 14:08:06;;;;;;;;;;;;;;;;;;;;;
2021/06/06 14:11:34;;;;;;;0.75;0.75;;;;;;;31.41;27.08;98427.63;128980;1096;115358;-80
2021/06/06 14:14:58;;;;;;;;;;;;;;;;;;;;;
2021/06/06 14:18:27;;;;;;;0.70;0.70;;;;;;;30.91;28.45;98422.88;128875;1096;114799;-81
2021/06/06 14:21:54;;;;;;;0.80;0.80;;;;;;;30.73;29.48;98426.16;128697;1095;115226;-79
2021/06/06 14:25:20;;;;;;;0.68;0.68;;;;;;;30.53;29.77;98423.59;129083;1096;115578;-81
2021/06/06 14:29:04;;;;;;;;;;;;;;;;;;;;;
2021/06/06 14:32:18;;;;;;;;;;;;;;;;;;;;;
2021/06/06 14:35:53;;;;;;;0.73;0.73;;;;;;;29.93;30.71;98414.97;129384;1096;115101;-81
2021/06/06 14:46:24;;;;;;;;;;;;;;;;;;;;;
2021/06/06 14:49:55;;;;;;;0.70;0.70;;;;;;;29.72;31.74;98410.80;129006;1096;115395;-81
2021/06/06 14:53:10;;;;;;;;;;;;;;;;;;;;;
2021/06/06 14:56:38;;;;;;;0.80;0.80;;;;;;;31.96;28.35;98402.30;128813;1097;114856;-80
2021/06/06 15:00:05;;;;;;;0.73;0.73;;;;;;;33.22;25.85;98404.66;129847;1096;22556;-79
2021/06/06 15:03:32;;;;;;;0.80;0.80;;;;;;;33.78;25.33;98402.72;129057;1096;114999;-79
2021/06/06 15:06:50;;;;;;;;;;;;;;;;;;;;;
2021/06/06 15:10:18;;;;;;;0.70;0.70;;;;;;;33.34;25.38;98405.77;129094;1095;115289;-81
2021/06/06 15:13:46;;;;;;;0.73;0.73;;;;;;;32.96;25.96;98399.30;129056;1096;115259;-81
2021/06/06 15:17:13;;;;;;;0.70;0.70;;;;;;;32.60;26.25;98399.14;129008;1096;115236;-79
2021/06/06 15:20:22;;;;;;;0.70;0.70;;;;;;;32.25;27.03;98402.02;129881;1096;22549;-80
2021/06/06 15:23:47;;;;;;;0.70;0.70;;;;;;;32.03;27.70;98404.84;129273;1096;114519;-81
2021/06/06 15:27:07;;;;;;;;;;;;;;;;;;;;;
2021/06/06 15:30:36;;;;;;;0.70;0.70;;;;;;;31.47;28.31;98397.21;128996;1096;115776;-81
2021/06/06 15:34:03;;;;;;;0.70;0.70;;;;;;;31.68;28.45;98401.28;128688;1096;115206;-80
2021/06/06 15:40:56;;;;;;;0.90;0.90;;;;;;;32.51;27.66;98397.09;128964;1096;115340;-82
2021/06/06 15:44:34;;;;;;;;;;;;;;;;;;;;;
2021/06/06 15:47:51;;;;;;;1.00;1.00;;;;;;;32.20;27.40;98388.69;129290;1096;114648;-82
2021/06/06 15:51:18;;;;;;;1.25;1.13;;;;;;;34.02;26.20;98389.69;129029;1096;115188;-80
2021/06/06 15:58:12;;;;;;;0.90;0.90;;;;;;;36.70;21.26;98386.73;128936;1094;114894;-80
2021/06/06 16:01:46;;;;;;;0.80;0.80;;;;;;;37.75;20.32;98383.83;128779;1096;114884;-80
2021/06/06 16:05:14;;;;;;;0.60;0.60;;;;;;;38.69;18.89;98381.66;128772;1096;115332;-79
2021/06/06 16:08:42;;;;;;;0.90;0.90;;;;;;;39.39;18.03;98383.14;128746;1096;114895;-79
2021/06/06 16:12:10;;;;;;;0.80;0.80;;;;;;;39.82;16.83;98378.18;129870;1096;22548;-80
2021/06/06 16:15:08;;;;;;;0.80;0.80;;;;;;;39.79;16.08;98376.38;129074;1096;115173;-81
2021/06/06 16:18:38;;;;;;;0.80;0.80;;;;;;;39.64;16.76;98376.55;129018;1096;115639;-80
2021/06/06 16:22:15;;;;;;;;;;;;;;;;;;;;;
2021/06/06 16:28:59;;;;;;;0.90;0.90;;;;;;;38.16;17.33;98371.73;128863;1096;115869;-80
2021/06/06 16:32:48;;;;;;;0.80;0.80;;;;;;;37.42;18.40;98373.00;128900;1096;116004;-79
2021/06/06 16:36:02;;;;;;;0.80;0.80;;;;;;;36.52;19.20;98368.11;128949;1096;120257;-78
2021/06/06 16:39:16;;;;;;;0.73;0.73;;;;;;;35.71;20.63;98368.41;128872;1096;116261;-81
2021/06/06 16:42:45;;;;;;;0.53;0.53;;;;;;;35.00;21.25;98378.38;128997;1096;115341;-80
2021/06/06 16:46:02;;;;;;;;;;;;;;;;;;;;;
2021/06/06 16:52:39;;;;;;;;;;;;;;;;;;;;;
2021/06/06 16:56:23;;;;;;;0.80;0.80;;;;;;;32.37;23.75;98376.08;129054;1096;115609;-81
2021/06/06 16:59:41;;;;;;;;;;;;;;;;;;;;;
2021/06/06 17:03:10;;;;;;;0.70;0.70;;;;;;;31.32;24.69;98377.44;129869;1096;22540;-80
2021/06/06 17:06:42;;;;;;;0.75;0.75;;;;;;;30.94;25.23;98386.61;128998;1096;114397;-81
2021/06/06 17:13:35;;;;;;;0.80;0.80;;;;;;;30.27;27.35;98381.11;129026;1096;115389;-80
2021/06/06 17:17:03;;;;;;;0.90;0.90;;;;;;;29.98;27.92;98381.88;129048;1096;115083;-80
2021/06/06 17:20:30;;;;;;;0.90;0.90;;;;;;;29.68;28.98;98382.36;129069;1096;114954;-80
2021/06/06 17:23:57;;;;;;;0.75;0.70;;;;;;;29.40;29.54;98381.05;129895;1095;22567;-81
2021/06/06 17:27:23;;;;;;;;;;;;;;;;;;;;;
2021/06/06 17:30:50;;;;;;;0.70;0.70;;;;;;;28.85;30.62;98378.05;128665;1095;115449;-81
2021/06/06 17:34:00;;;;;;;0.60;0.60;;;;;;;28.59;31.54;98390.90;128768;1096;115295;-81
2021/06/06 17:37:07;;;;;;;;;;;;;;;;;;;;;
2021/06/06 17:40:28;;;;;;;0.80;0.80;;;;;;;28.10;32.90;98385.20;129027;1096;115271;-81
2021/06/06 17:43:57;;;;;;;0.47;0.47;;;;;;;27.82;33.49;98387.30;129067;1096;114860;-81
2021/06/06 17:47:32;;;;;;;;;;;;;;;;;;;;;
2021/06/06 17:57:42;;;;;;;0.60;0.60;;;;;;;26.78;36.05;98404.03;128778;1096;115846;-81
2021/06/06 18:01:17;;;;;;;0.65;0.65;;;;;;;26.56;36.41;98403.54;129029;1096;114942;-81
2021/06/06 18:04:43;;;;;;;0.60;0.60;;;;;;;26.31;37.09;98410.15;129029;1096;115055;-82
2021/06/06 18:08:08;;;;;;;;;;;;;;;;;;;;;
2021/06/06 18:11:36;;;;;;;0.65;0.65;;;;;;;25.88;38.52;98402.38;128637;1096;115424;-81
2021/06/06 18:15:03;;;;;;;1.38;0.83;;;;;;;25.67;38.51;98405.34;129801;1096;22619;-81
2021/06/06 18:18:30;;;;;;;0.55;0.55;;;;;;;25.45;38.72;98411.05;128947;1096;115126;-81
2021/06/06 18:21:58;;;;;;;0.40;0.40;;;;;;;25.27;39.16;98410.44;128992;1095;115442;-81
2021/06/06 18:25:22;;;;;;;;;;;;;;;;;;;;;
2021/06/06 18:28:59;;;;;;;0.60;0.55;;;;;;;24.86;39.49;98413.84;128663;1094;116057;-82
2021/06/06 18:32:26;;;;;;;0.63;0.50;;;;;;;24.66;39.75;98427.34;128671;1096;116202;-82
2021/06/06 18:35:53;;;;;;;0.50;0.50;;;;;;;24.48;39.98;98424.70;129612;1095;22586;-82
2021/06/06 18:39:20;;;;;;;0.50;0.50;;;;;;;24.32;39.85;98427.08;128962;1096;114827;-81
2021/06/06 18:42:48;;;;;;;0.60;0.60;;;;;;;24.16;40.00;98424.01;128993;1096;115338;-81
2021/06/06 18:46:20;;;;;;;0.35;0.35;;;;;;;24.00;39.85;98438.98;129020;1096;114826;-81
2021/06/06 18:49:47;;;;;;;0.58;0.58;;;;;;;23.84;40.23;98438.64;128754;1096;115570;-81
2021/06/06 18:53:14;;;;;;;0.65;0.63;;;;;;;23.68;40.75;98441.80;128740;1096;117815;-80
2021/06/06 18:56:41;;;;;;;0.40;0.40;;;;;;;23.48;41.15;98433.16;129013;1096;114695;-81
2021/06/06 19:00:07;;;;;;;0.40;0.40;;;;;;;23.35;41.42;98442.21;129855;1096;22643;-82
2021/06/06 19:07:02;;;;;;;0.40;0.40;;;;;;;23.09;41.68;98451.60;128937;1096;115307;-80
2021/06/06 19:10:31;;;;;;;0.40;0.40;;;;;;;22.97;41.86;98442.56;128683;1096;115669;-80
2021/06/06 19:13:57;;;;;;;0.50;0.50;;;;;;;22.86;42.00;98452.70;128914;1096;115098;-80
2021/06/06 19:17:25;;;;;;;0.48;0.48;;;;;;;22.69;42.97;98461.70;128909;1095;115023;-82
2021/06/06 19:24:28;;;;;;;0.30;0.30;;;;;;;22.35;43.24;98464.70;128546;1097;115699;-84
2021/06/06 19:27:56;;;;;;;0.58;0.58;;;;;;;22.21;43.73;98470.13;128936;1096;115290;-82
2021/06/06 19:31:24;;;;;;;0.60;0.60;;;;;;;22.04;44.47;98472.34;128962;1096;115495;-84
2021/06/06 19:37:54;;;;;;;0.38;0.38;;;;;;;21.79;44.52;98474.16;128928;1096;115412;-84
2021/06/06 19:41:21;;;;;;;0.40;0.40;;;;;;;21.67;44.74;98479.95;128919;1096;115131;-82
2021/06/06 19:44:54;;;;;;;0.50;0.50;;;;;;;21.53;45.40;98481.39;129266;1097;115632;-84
2021/06/06 19:57:34;;;;;;;0.30;0.30;;;;;;;21.13;46.44;98493.14;128984;1095;115802;-82
2021/06/06 20:01:06;;;;;;;0.30;0.30;;;;;;;21.08;46.27;98485.28;128982;1096;115101;-84
2021/06/06 20:13:06;;;;;;;0.70;0.65;;;;;;;20.92;46.97;98501.94;128967;1095;114927;-81
2021/06/06 20:46:38;;;;;;;0.40;0.40;;;;;;;20.65;47.71;98503.97;128949;1096;115036;-82
2021/06/06 20:50:07;;;;;;;0.45;0.45;;;;;;;20.64;47.67;98505.14;129024;1097;114922;-80
2021/06/06 20:53:32;;;;;;;0.30;0.30;;;;;;;20.62;48.03;98501.97;129034;1095;114721;-80
2021/06/06 21:03:53;;;;;;;0.30;0.30;;;;;;;20.58;47.78;98512.88;129033;1096;115636;-82
2021/06/06 21:07:15;;;;;;;0.30;0.30;;;;;;;20.59;47.66;98516.39;129020;1095;115353;-81
2021/06/06 21:10:43;;;;;;;0.20;0.20;;;;;;;20.58;47.94;98521.08;129048;1095;114923;-81
2021/06/06 21:14:19;;;;;;;;;;;;;;;;;;;;;
2021/06/06 21:17:42;;;;;;;0.40;0.40;;;;;;;20.56;48.15;98517.16;129008;1096;115260;-82
2021/06/06 21:21:09;;;;;;;0.30;0.30;;;;;;;20.55;48.30;98518.30;129567;1096;22596;-82
2021/06/06 21:24:37;;;;;;;0.30;0.30;;;;;;;20.54;48.17;98525.72;129082;1096;114995;-81
2021/06/06 21:28:03;;;;;;;0.30;0.30;;;;;;;20.54;48.15;98524.94;129055;1096;115311;-81
2021/06/06 21:34:57;;;;;;;0.30;0.30;;;;;;;20.54;48.28;98527.67;128857;1095;115026;-81
2021/06/06 21:38:24;;;;;;;0.33;0.33;;;;;;;20.53;48.46;98529.63;129066;1097;114898;-81
2021/06/06 21:41:53;;;;;;;0.30;0.30;;;;;;;20.52;48.64;98511.64;129050;1095;114833;-81
2021/06/06 21:45:19;;;;;;;0.30;0.30;;;;;;;20.50;48.84;98519.41;128967;1096;115106;-81
2021/06/06 21:52:20;;;;;;;0.30;0.30;;;;;;;20.48;49.32;98520.94;128827;1095;114902;-81
2021/06/06 21:55:47;;;;;;;0.33;0.33;;;;;;;20.46;49.44;98528.71;129059;1096;115010;-81
2021/06/06 22:09:16;;;;;;;;;;;;;;;;;;;;;
2021/06/06 22:12:45;;;;;;;0.40;0.40;;;;;;;20.32;49.52;98521.13;129099;1096;101764;-82
2021/06/06 22:56:46;;;;;;;0.30;0.30;;;;;;;20.02;50.58;98518.34;129912;1096;22541;-82
2021/06/06 23:23:19;;;;;;;;;;;;;;;;;;;;;
2021/06/06 23:26:49;;;;;;;0.30;0.30;;;;;;;19.92;50.82;98508.03;129358;1096;115241;-82
2021/06/06 23:30:09;;;;;;;0.40;0.40;;;;;;;19.90;51.02;98502.16;129858;1096;22592;-82
2021/06/06 23:33:42;;;;;;;0.40;0.40;;;;;;;19.85;51.54;98500.53;128721;1096;115011;-81
2021/06/06 23:37:08;;;;;;;0.35;0.35;;;;;;;19.82;51.10;98499.31;128730;1096;115117;-81
2021/06/06 23:40:37;;;;;;;0.30;0.30;;;;;;;19.81;50.94;98505.16;129069;1096;115510;-82
2021/06/06 23:44:04;;;;;;;0.40;0.40;;;;;;;19.79;51.06;98505.51;129039;1096;114996;-80
2021/06/06 23:47:40;;;;;;;;;;;;;;;;;;;;;
2021/06/06 23:51:01;;;;;;;0.30;0.30;;;;;;;19.78;50.15;98503.94;129659;1096;22603;-80
